sensor_id;sensor_type;location;lat;lon;timestamp;temperature;humidity
73322;DHT22;61549;37.044;22.128;2022-07-04T00:00:46;28.10;58.20
73322;DHT22;61549;37.044;22.128;2022-07-04T00:03:12;28.00;58.70
73322;DHT22;61549;37.044;22.128;2022-07-04T00:05:38;28.00;58.90
73322;DHT22;61549;37.044;22.128;2022-07-04T00:08:04;28.00;58.90
73322;DHT22;61549;37.044;22.128;2022-07-04T00:10:30;28.00;59.00
73322;DHT22;61549;37.044;22.128;2022-07-04T00:12:56;28.00;58.90
73322;DHT22;61549;37.044;22.128;2022-07-04T00:15:22;28.00;59.10
73322;DHT22;61549;37.044;22.128;2022-07-04T00:17:48;28.00;58.90
73322;DHT22;61549;37.044;22.128;2022-07-04T00:20:14;28.00;59.40
73322;DHT22;61549;37.044;22.128;2022-07-04T00:22:40;27.90;60.00
73322;DHT22;61549;37.044;22.128;2022-07-04T00:25:06;27.80;60.00
73322;DHT22;61549;37.044;22.128;2022-07-04T00:27:33;27.80;60.10
73322;DHT22;61549;37.044;22.128;2022-07-04T00:29:59;27.80;60.10
73322;DHT22;61549;37.044;22.128;2022-07-04T00:32:25;27.80;60.50
73322;DHT22;61549;37.044;22.128;2022-07-04T00:34:51;27.80;60.70
73322;DHT22;61549;37.044;22.128;2022-07-04T00:37:16;27.90;60.80
73322;DHT22;61549;37.044;22.128;2022-07-04T00:39:42;27.80;60.80
73322;DHT22;61549;37.044;22.128;2022-07-04T00:42:08;27.80;60.40
73322;DHT22;61549;37.044;22.128;2022-07-04T00:44:34;27.80;60.70
73322;DHT22;61549;37.044;22.128;2022-07-04T00:47:05;27.70;61.10
73322;DHT22;61549;37.044;22.128;2022-07-04T00:49:31;27.70;61.00
73322;DHT22;61549;37.044;22.128;2022-07-04T00:51:57;27.70;61.30
73322;DHT22;61549;37.044;22.128;2022-07-04T00:54:27;27.60;61.30
73322;DHT22;61549;37.044;22.128;2022-07-04T00:56:57;27.70;60.90
73322;DHT22;61549;37.044;22.128;2022-07-04T00:59:23;27.70;61.80
73322;DHT22;61549;37.044;22.128;2022-07-04T01:01:50;27.60;61.60
73322;DHT22;61549;37.044;22.128;2022-07-04T01:04:16;27.60;61.60
73322;DHT22;61549;37.044;22.128;2022-07-04T01:06:43;27.60;61.70
73322;DHT22;61549;37.044;22.128;2022-07-04T01:09:09;27.70;61.50
73322;DHT22;61549;37.044;22.128;2022-07-04T01:11:34;27.70;61.80
73322;DHT22;61549;37.044;22.128;2022-07-04T01:14:01;27.70;61.60
73322;DHT22;61549;37.044;22.128;2022-07-04T01:16:28;27.60;61.60
73322;DHT22;61549;37.044;22.128;2022-07-04T01:18:54;27.60;62.10
73322;DHT22;61549;37.044;22.128;2022-07-04T01:21:20;27.50;61.70
73322;DHT22;61549;37.044;22.128;2022-07-04T01:23:47;27.60;62.00
73322;DHT22;61549;37.044;22.128;2022-07-04T01:26:13;27.50;62.30
73322;DHT22;61549;37.044;22.128;2022-07-04T01:28:39;27.50;62.20
73322;DHT22;61549;37.044;22.128;2022-07-04T01:31:05;27.40;62.20
73322;DHT22;61549;37.044;22.128;2022-07-04T01:33:32;27.40;62.90
73322;DHT22;61549;37.044;22.128;2022-07-04T01:35:59;27.40;62.90
73322;DHT22;61549;37.044;22.128;2022-07-04T01:38:25;27.40;62.50
73322;DHT22;61549;37.044;22.128;2022-07-04T01:40:51;27.40;62.60
73322;DHT22;61549;37.044;22.128;2022-07-04T01:43:17;27.40;61.90
73322;DHT22;61549;37.044;22.128;2022-07-04T01:45:43;27.40;62.40
73322;DHT22;61549;37.044;22.128;2022-07-04T01:48:11;27.40;62.70
73322;DHT22;61549;37.044;22.128;2022-07-04T01:50:38;27.30;62.60
73322;DHT22;61549;37.044;22.128;2022-07-04T01:53:05;27.30;62.50
73322;DHT22;61549;37.044;22.128;2022-07-04T01:55:34;27.30;63.00
73322;DHT22;61549;37.044;22.128;2022-07-04T01:58:00;27.30;62.80
73322;DHT22;61549;37.044;22.128;2022-07-04T02:00:27;27.20;62.10
73322;DHT22;61549;37.044;22.128;2022-07-04T02:03:11;27.30;61.70
73322;DHT22;61549;37.044;22.128;2022-07-04T02:05:37;27.20;61.90
73322;DHT22;61549;37.044;22.128;2022-07-04T02:08:07;27.10;61.60
73322;DHT22;61549;37.044;22.128;2022-07-04T02:10:34;27.10;61.30
73322;DHT22;61549;37.044;22.128;2022-07-04T02:13:00;27.00;61.00
73322;DHT22;61549;37.044;22.128;2022-07-04T02:15:28;27.00;60.70
73322;DHT22;61549;37.044;22.128;2022-07-04T02:17:55;27.00;60.00
73322;DHT22;61549;37.044;22.128;2022-07-04T02:20:21;26.90;59.20
73322;DHT22;61549;37.044;22.128;2022-07-04T02:22:47;26.80;59.50
73322;DHT22;61549;37.044;22.128;2022-07-04T02:25:13;26.80;60.00
73322;DHT22;61549;37.044;22.128;2022-07-04T02:27:38;26.80;60.00
73322;DHT22;61549;37.044;22.128;2022-07-04T02:30:05;26.90;60.00
73322;DHT22;61549;37.044;22.128;2022-07-04T02:32:31;26.80;59.90
73322;DHT22;61549;37.044;22.128;2022-07-04T02:34:57;26.80;60.50
73322;DHT22;61549;37.044;22.128;2022-07-04T02:37:23;26.80;60.60
73322;DHT22;61549;37.044;22.128;2022-07-04T02:39:49;26.80;60.90
73322;DHT22;61549;37.044;22.128;2022-07-04T02:42:15;26.70;60.90
73322;DHT22;61549;37.044;22.128;2022-07-04T02:44:40;26.70;61.70
73322;DHT22;61549;37.044;22.128;2022-07-04T02:47:07;26.70;62.10
73322;DHT22;61549;37.044;22.128;2022-07-04T02:49:33;26.60;61.80
73322;DHT22;61549;37.044;22.128;2022-07-04T02:51:59;26.70;62.00
73322;DHT22;61549;37.044;22.128;2022-07-04T02:54:24;26.60;62.20
73322;DHT22;61549;37.044;22.128;2022-07-04T02:56:50;26.60;62.20
73322;DHT22;61549;37.044;22.128;2022-07-04T02:59:16;26.50;62.10
73322;DHT22;61549;37.044;22.128;2022-07-04T03:01:42;26.50;62.60
73322;DHT22;61549;37.044;22.128;2022-07-04T03:04:08;26.50;62.70
73322;DHT22;61549;37.044;22.128;2022-07-04T03:06:33;26.50;63.00
73322;DHT22;61549;37.044;22.128;2022-07-04T03:08:59;26.40;62.80
73322;DHT22;61549;37.044;22.128;2022-07-04T03:11:25;26.40;63.30
73322;DHT22;61549;37.044;22.128;2022-07-04T03:13:51;26.30;64.00
73322;DHT22;61549;37.044;22.128;2022-07-04T03:16:17;26.20;64.90
73322;DHT22;61549;37.044;22.128;2022-07-04T03:18:43;26.30;65.20
73322;DHT22;61549;37.044;22.128;2022-07-04T03:21:08;26.30;64.90
73322;DHT22;61549;37.044;22.128;2022-07-04T03:23:34;26.40;64.20
73322;DHT22;61549;37.044;22.128;2022-07-04T03:26:01;26.40;64.50
73322;DHT22;61549;37.044;22.128;2022-07-04T03:28:30;26.40;64.50
73322;DHT22;61549;37.044;22.128;2022-07-04T03:30:56;26.40;64.80
73322;DHT22;61549;37.044;22.128;2022-07-04T03:33:22;26.40;64.80
73322;DHT22;61549;37.044;22.128;2022-07-04T03:35:48;26.40;65.30
73322;DHT22;61549;37.044;22.128;2022-07-04T03:38:14;26.40;65.50
73322;DHT22;61549;37.044;22.128;2022-07-04T03:40:39;26.40;65.60
73322;DHT22;61549;37.044;22.128;2022-07-04T03:43:05;26.40;65.40
73322;DHT22;61549;37.044;22.128;2022-07-04T03:45:32;26.40;65.80
73322;DHT22;61549;37.044;22.128;2022-07-04T03:47:58;26.50;66.20
73322;DHT22;61549;37.044;22.128;2022-07-04T03:50:24;26.40;67.00
73322;DHT22;61549;37.044;22.128;2022-07-04T03:52:51;26.40;67.50
73322;DHT22;61549;37.044;22.128;2022-07-04T03:55:17;26.40;67.40
73322;DHT22;61549;37.044;22.128;2022-07-04T03:57:43;26.50;66.80
73322;DHT22;61549;37.044;22.128;2022-07-04T04:00:09;26.40;67.90
73322;DHT22;61549;37.044;22.128;2022-07-04T04:02:36;26.40;67.70
73322;DHT22;61549;37.044;22.128;2022-07-04T04:05:03;26.40;67.70
73322;DHT22;61549;37.044;22.128;2022-07-04T04:07:47;26.40;68.10
73322;DHT22;61549;37.044;22.128;2022-07-04T04:10:13;26.50;67.90
73322;DHT22;61549;37.044;22.128;2022-07-04T04:12:39;26.60;68.10
73322;DHT22;61549;37.044;22.128;2022-07-04T04:15:05;26.70;68.00
73322;DHT22;61549;37.044;22.128;2022-07-04T04:17:31;26.80;67.40
73322;DHT22;61549;37.044;22.128;2022-07-04T04:19:57;27.00;67.10
73322;DHT22;61549;37.044;22.128;2022-07-04T04:22:23;27.00;66.80
73322;DHT22;61549;37.044;22.128;2022-07-04T04:24:49;27.00;67.10
73322;DHT22;61549;37.044;22.128;2022-07-04T04:27:15;27.20;67.50
73322;DHT22;61549;37.044;22.128;2022-07-04T04:29:41;27.20;67.80
73322;DHT22;61549;37.044;22.128;2022-07-04T04:32:07;27.30;67.90
73322;DHT22;61549;37.044;22.128;2022-07-04T04:34:33;27.30;67.80
73322;DHT22;61549;37.044;22.128;2022-07-04T04:37:00;27.40;67.80
73322;DHT22;61549;37.044;22.128;2022-07-04T04:39:26;27.40;67.50
73322;DHT22;61549;37.044;22.128;2022-07-04T04:41:52;27.50;67.90
73322;DHT22;61549;37.044;22.128;2022-07-04T04:44:18;27.50;68.30
73322;DHT22;61549;37.044;22.128;2022-07-04T04:46:45;27.50;68.50
73322;DHT22;61549;37.044;22.128;2022-07-04T04:49:11;27.60;68.80
73322;DHT22;61549;37.044;22.128;2022-07-04T04:51:38;27.70;68.50
73322;DHT22;61549;37.044;22.128;2022-07-04T04:54:05;27.70;68.70
73322;DHT22;61549;37.044;22.128;2022-07-04T04:56:31;27.80;68.60
73322;DHT22;61549;37.044;22.128;2022-07-04T04:58:57;27.80;68.40
73322;DHT22;61549;37.044;22.128;2022-07-04T05:01:23;27.90;69.00
73322;DHT22;61549;37.044;22.128;2022-07-04T05:03:49;28.00;69.10
73322;DHT22;61549;37.044;22.128;2022-07-04T05:06:15;28.10;68.80
73322;DHT22;61549;37.044;22.128;2022-07-04T05:08:41;28.10;67.90
73322;DHT22;61549;37.044;22.128;2022-07-04T05:11:07;28.20;67.80
73322;DHT22;61549;37.044;22.128;2022-07-04T05:13:33;28.30;67.30
73322;DHT22;61549;37.044;22.128;2022-07-04T05:15:59;28.40;67.10
73322;DHT22;61549;37.044;22.128;2022-07-04T05:18:25;28.40;66.50
73322;DHT22;61549;37.044;22.128;2022-07-04T05:20:51;28.40;66.70
73322;DHT22;61549;37.044;22.128;2022-07-04T05:23:36;28.40;66.40
73322;DHT22;61549;37.044;22.128;2022-07-04T05:26:02;28.50;65.50
73322;DHT22;61549;37.044;22.128;2022-07-04T05:28:28;28.50;66.20
73322;DHT22;61549;37.044;22.128;2022-07-04T05:30:57;28.50;67.10
73322;DHT22;61549;37.044;22.128;2022-07-04T05:33:22;28.60;66.80
73322;DHT22;61549;37.044;22.128;2022-07-04T05:35:48;28.70;67.00
73322;DHT22;61549;37.044;22.128;2022-07-04T05:38:14;28.80;66.60
73322;DHT22;61549;37.044;22.128;2022-07-04T05:40:40;28.80;66.30
73322;DHT22;61549;37.044;22.128;2022-07-04T05:43:06;28.80;66.40
73322;DHT22;61549;37.044;22.128;2022-07-04T05:45:32;28.80;66.20
73322;DHT22;61549;37.044;22.128;2022-07-04T05:47:57;28.80;65.80
73322;DHT22;61549;37.044;22.128;2022-07-04T05:50:23;28.80;66.00
73322;DHT22;61549;37.044;22.128;2022-07-04T05:52:49;28.80;66.20
73322;DHT22;61549;37.044;22.128;2022-07-04T05:55:15;28.90;66.00
73322;DHT22;61549;37.044;22.128;2022-07-04T05:57:41;29.00;65.40
73322;DHT22;61549;37.044;22.128;2022-07-04T06:00:07;29.10;65.40
73322;DHT22;61549;37.044;22.128;2022-07-04T06:02:33;29.20;65.10
73322;DHT22;61549;37.044;22.128;2022-07-04T06:04:59;29.30;64.60
73322;DHT22;61549;37.044;22.128;2022-07-04T06:07:28;29.30;63.90
73322;DHT22;61549;37.044;22.128;2022-07-04T06:09:54;29.50;64.20
73322;DHT22;61549;37.044;22.128;2022-07-04T06:12:20;29.70;63.90
73322;DHT22;61549;37.044;22.128;2022-07-04T06:14:47;29.80;63.50
73322;DHT22;61549;37.044;22.128;2022-07-04T06:17:13;29.90;63.00
73322;DHT22;61549;37.044;22.128;2022-07-04T06:19:39;30.00;62.00
73322;DHT22;61549;37.044;22.128;2022-07-04T06:22:05;30.10;61.60
73322;DHT22;61549;37.044;22.128;2022-07-04T06:24:31;30.20;61.20
73322;DHT22;61549;37.044;22.128;2022-07-04T06:26:57;30.40;59.80
73322;DHT22;61549;37.044;22.128;2022-07-04T06:29:23;30.50;59.60
73322;DHT22;61549;37.044;22.128;2022-07-04T06:31:51;30.50;58.70
73322;DHT22;61549;37.044;22.128;2022-07-04T06:34:17;30.60;58.10
73322;DHT22;61549;37.044;22.128;2022-07-04T06:37:04;30.70;57.40
73322;DHT22;61549;37.044;22.128;2022-07-04T06:39:30;30.90;57.10
73322;DHT22;61549;37.044;22.128;2022-07-04T06:41:57;30.80;57.90
73322;DHT22;61549;37.044;22.128;2022-07-04T06:44:26;30.70;57.60
73322;DHT22;61549;37.044;22.128;2022-07-04T06:46:52;30.70;55.20
73322;DHT22;61549;37.044;22.128;2022-07-04T06:49:19;30.60;54.60
73322;DHT22;61549;37.044;22.128;2022-07-04T06:51:50;30.60;57.70
73322;DHT22;61549;37.044;22.128;2022-07-04T06:54:19;30.50;58.60
73322;DHT22;61549;37.044;22.128;2022-07-04T06:56:46;30.60;58.90
73322;DHT22;61549;37.044;22.128;2022-07-04T06:59:14;30.70;58.90
73322;DHT22;61549;37.044;22.128;2022-07-04T07:01:40;30.70;58.90
73322;DHT22;61549;37.044;22.128;2022-07-04T07:04:09;30.60;58.00
73322;DHT22;61549;37.044;22.128;2022-07-04T07:06:36;30.60;58.20
73322;DHT22;61549;37.044;22.128;2022-07-04T07:09:02;30.60;59.00
73322;DHT22;61549;37.044;22.128;2022-07-04T07:11:31;30.60;59.20
73322;DHT22;61549;37.044;22.128;2022-07-04T07:14:03;30.50;60.00
73322;DHT22;61549;37.044;22.128;2022-07-04T07:16:29;30.50;60.00
73322;DHT22;61549;37.044;22.128;2022-07-04T07:18:56;30.60;59.50
73322;DHT22;61549;37.044;22.128;2022-07-04T07:21:21;30.60;59.40
73322;DHT22;61549;37.044;22.128;2022-07-04T07:23:47;30.60;58.90
73322;DHT22;61549;37.044;22.128;2022-07-04T07:26:15;30.70;58.70
73322;DHT22;61549;37.044;22.128;2022-07-04T07:28:40;30.80;58.20
73322;DHT22;61549;37.044;22.128;2022-07-04T07:31:09;30.90;57.90
73322;DHT22;61549;37.044;22.128;2022-07-04T07:33:39;30.90;57.10
73322;DHT22;61549;37.044;22.128;2022-07-04T07:36:06;31.00;57.20
73322;DHT22;61549;37.044;22.128;2022-07-04T07:38:59;31.10;57.80
73322;DHT22;61549;37.044;22.128;2022-07-04T07:41:28;31.20;57.10
73322;DHT22;61549;37.044;22.128;2022-07-04T07:43:55;31.10;56.90
73322;DHT22;61549;37.044;22.128;2022-07-04T07:46:21;31.20;57.40
73322;DHT22;61549;37.044;22.128;2022-07-04T07:48:47;31.40;56.50
73322;DHT22;61549;37.044;22.128;2022-07-04T07:51:17;31.20;56.00
73322;DHT22;61549;37.044;22.128;2022-07-04T07:53:46;31.10;55.80
73322;DHT22;61549;37.044;22.128;2022-07-04T07:56:16;31.00;56.50
73322;DHT22;61549;37.044;22.128;2022-07-04T07:58:51;31.00;56.70
73322;DHT22;61549;37.044;22.128;2022-07-04T08:01:17;31.00;56.70
73322;DHT22;61549;37.044;22.128;2022-07-04T08:03:53;31.10;56.00
73322;DHT22;61549;37.044;22.128;2022-07-04T08:06:37;31.10;55.80
73322;DHT22;61549;37.044;22.128;2022-07-04T08:09:04;31.00;56.00
73322;DHT22;61549;37.044;22.128;2022-07-04T08:11:31;30.90;57.20
73322;DHT22;61549;37.044;22.128;2022-07-04T08:13:59;30.80;56.80
73322;DHT22;61549;37.044;22.128;2022-07-04T08:16:43;30.70;57.70
73322;DHT22;61549;37.044;22.128;2022-07-04T08:19:10;30.70;58.10
73322;DHT22;61549;37.044;22.128;2022-07-04T08:21:49;30.70;57.70
73322;DHT22;61549;37.044;22.128;2022-07-04T08:24:17;30.90;57.50
73322;DHT22;61549;37.044;22.128;2022-07-04T08:26:43;30.90;56.60
73322;DHT22;61549;37.044;22.128;2022-07-04T08:29:09;30.90;56.90
73322;DHT22;61549;37.044;22.128;2022-07-04T08:31:36;31.00;57.00
73322;DHT22;61549;37.044;22.128;2022-07-04T08:34:03;31.10;56.40
73322;DHT22;61549;37.044;22.128;2022-07-04T08:36:30;31.00;56.10
73322;DHT22;61549;37.044;22.128;2022-07-04T08:38:57;31.10;55.70
73322;DHT22;61549;37.044;22.128;2022-07-04T08:41:23;31.20;55.60
73322;DHT22;61549;37.044;22.128;2022-07-04T08:43:49;31.50;54.90
73322;DHT22;61549;37.044;22.128;2022-07-04T08:46:16;31.50;54.20
73322;DHT22;61549;37.044;22.128;2022-07-04T08:48:50;31.60;54.00
73322;DHT22;61549;37.044;22.128;2022-07-04T08:51:59;31.70;52.80
73322;DHT22;61549;37.044;22.128;2022-07-04T08:54:26;31.70;51.00
73322;DHT22;61549;37.044;22.128;2022-07-04T08:57:11;31.70;51.30
73322;DHT22;61549;37.044;22.128;2022-07-04T08:59:57;31.80;51.20
73322;DHT22;61549;37.044;22.128;2022-07-04T09:02:27;32.00;51.30
73322;DHT22;61549;37.044;22.128;2022-07-04T09:04:54;32.10;51.80
73322;DHT22;61549;37.044;22.128;2022-07-04T09:07:20;32.10;52.20
73322;DHT22;61549;37.044;22.128;2022-07-04T09:09:46;32.10;52.00
73322;DHT22;61549;37.044;22.128;2022-07-04T09:12:13;32.10;51.30
73322;DHT22;61549;37.044;22.128;2022-07-04T09:14:40;31.90;51.50
73322;DHT22;61549;37.044;22.128;2022-07-04T09:17:06;31.90;51.30
73322;DHT22;61549;37.044;22.128;2022-07-04T09:19:33;31.90;51.60
73322;DHT22;61549;37.044;22.128;2022-07-04T09:22:03;32.00;51.50
73322;DHT22;61549;37.044;22.128;2022-07-04T09:24:48;32.10;51.10
73322;DHT22;61549;37.044;22.128;2022-07-04T09:27:34;32.10;50.10
73322;DHT22;61549;37.044;22.128;2022-07-04T09:30:01;31.80;49.90
73322;DHT22;61549;37.044;22.128;2022-07-04T09:32:39;31.70;49.80
73322;DHT22;61549;37.044;22.128;2022-07-04T09:35:07;31.70;49.20
73322;DHT22;61549;37.044;22.128;2022-07-04T09:37:44;31.80;48.50
73322;DHT22;61549;37.044;22.128;2022-07-04T09:40:24;31.90;47.50
73322;DHT22;61549;37.044;22.128;2022-07-04T09:42:50;32.10;45.30
73322;DHT22;61549;37.044;22.128;2022-07-04T09:45:16;32.20;45.00
73322;DHT22;61549;37.044;22.128;2022-07-04T09:47:46;32.40;44.60
73322;DHT22;61549;37.044;22.128;2022-07-04T09:50:17;32.40;42.00
73322;DHT22;61549;37.044;22.128;2022-07-04T09:53:01;32.40;43.80
73322;DHT22;61549;37.044;22.128;2022-07-04T09:55:32;32.40;42.90
73322;DHT22;61549;37.044;22.128;2022-07-04T09:58:04;32.40;40.90
73322;DHT22;61549;37.044;22.128;2022-07-04T10:00:33;32.40;42.80
73322;DHT22;61549;37.044;22.128;2022-07-04T10:03:24;32.30;43.70
73322;DHT22;61549;37.044;22.128;2022-07-04T10:06:11;32.30;43.50
73322;DHT22;61549;37.044;22.128;2022-07-04T10:08:39;32.20;43.10
73322;DHT22;61549;37.044;22.128;2022-07-04T10:11:06;32.20;43.40
73322;DHT22;61549;37.044;22.128;2022-07-04T10:13:32;32.30;44.10
73322;DHT22;61549;37.044;22.128;2022-07-04T10:15:59;32.20;43.70
73322;DHT22;61549;37.044;22.128;2022-07-04T10:18:26;32.30;44.70
73322;DHT22;61549;37.044;22.128;2022-07-04T10:20:56;32.20;44.60
73322;DHT22;61549;37.044;22.128;2022-07-04T10:23:23;32.20;44.60
73322;DHT22;61549;37.044;22.128;2022-07-04T10:25:52;32.20;44.70
73322;DHT22;61549;37.044;22.128;2022-07-04T10:28:21;32.30;44.60
73322;DHT22;61549;37.044;22.128;2022-07-04T10:30:56;32.30;44.50
73322;DHT22;61549;37.044;22.128;2022-07-04T10:33:26;32.30;45.60
73322;DHT22;61549;37.044;22.128;2022-07-04T10:36:00;32.40;45.20
73322;DHT22;61549;37.044;22.128;2022-07-04T10:38:28;32.30;44.60
73322;DHT22;61549;37.044;22.128;2022-07-04T10:41:05;32.40;46.30
73322;DHT22;61549;37.044;22.128;2022-07-04T10:49:01;32.20;44.60
73322;DHT22;61549;37.044;22.128;2022-07-04T10:54:33;32.20;47.70
73322;DHT22;61549;37.044;22.128;2022-07-04T11:02:27;32.10;44.50
73322;DHT22;61549;37.044;22.128;2022-07-04T11:05:10;32.20;45.60
73322;DHT22;61549;37.044;22.128;2022-07-04T11:17:59;32.10;50.70
73322;DHT22;61549;37.044;22.128;2022-07-04T11:20:27;32.20;47.70
73322;DHT22;61549;37.044;22.128;2022-07-04T11:23:08;32.30;50.60
73322;DHT22;61549;37.044;22.128;2022-07-04T11:25:34;32.50;51.00
73322;DHT22;61549;37.044;22.128;2022-07-04T11:30:53;32.60;46.80
73322;DHT22;61549;37.044;22.128;2022-07-04T11:33:25;32.60;47.20
73322;DHT22;61549;37.044;22.128;2022-07-04T11:36:05;32.50;46.40
73322;DHT22;61549;37.044;22.128;2022-07-04T11:38:59;32.60;48.40
73322;DHT22;61549;37.044;22.128;2022-07-04T11:41:36;32.50;49.30
73322;DHT22;61549;37.044;22.128;2022-07-04T11:44:26;32.60;51.80
73322;DHT22;61549;37.044;22.128;2022-07-04T11:49:54;32.60;49.00
73322;DHT22;61549;37.044;22.128;2022-07-04T11:52:23;32.70;46.50
73322;DHT22;61549;37.044;22.128;2022-07-04T11:54:51;32.90;45.90
73322;DHT22;61549;37.044;22.128;2022-07-04T11:57:28;32.80;43.90
73322;DHT22;61549;37.044;22.128;2022-07-04T12:00:16;33.00;43.30
73322;DHT22;61549;37.044;22.128;2022-07-04T12:02:47;33.20;42.20
73322;DHT22;61549;37.044;22.128;2022-07-04T12:05:15;33.20;44.50
73322;DHT22;61549;37.044;22.128;2022-07-04T12:07:43;33.30;45.00
73322;DHT22;61549;37.044;22.128;2022-07-04T12:10:13;33.50;44.60
73322;DHT22;61549;37.044;22.128;2022-07-04T12:12:58;33.60;43.50
73322;DHT22;61549;37.044;22.128;2022-07-04T12:15:35;33.70;43.40
73322;DHT22;61549;37.044;22.128;2022-07-04T12:18:02;33.70;43.40
73322;DHT22;61549;37.044;22.128;2022-07-04T12:20:29;33.80;43.80
73322;DHT22;61549;37.044;22.128;2022-07-04T12:22:58;33.80;44.20
73322;DHT22;61549;37.044;22.128;2022-07-04T12:25:33;33.90;41.70
73322;DHT22;61549;37.044;22.128;2022-07-04T12:28:16;33.80;42.40
73322;DHT22;61549;37.044;22.128;2022-07-04T12:33:23;33.60;38.20
73322;DHT22;61549;37.044;22.128;2022-07-04T12:36:05;33.60;39.20
73322;DHT22;61549;37.044;22.128;2022-07-04T12:38:36;33.70;38.70
73322;DHT22;61549;37.044;22.128;2022-07-04T12:41:13;33.80;38.70
73322;DHT22;61549;37.044;22.128;2022-07-04T12:46:08;34.00;38.60
73322;DHT22;61549;37.044;22.128;2022-07-04T12:48:38;34.20;37.10
73322;DHT22;61549;37.044;22.128;2022-07-04T12:53:45;34.30;36.70
73322;DHT22;61549;37.044;22.128;2022-07-04T12:56:34;34.30;36.20
73322;DHT22;61549;37.044;22.128;2022-07-04T12:59:11;34.40;36.20
73322;DHT22;61549;37.044;22.128;2022-07-04T13:01:39;34.30;35.30
73322;DHT22;61549;37.044;22.128;2022-07-04T13:04:09;34.50;36.70
73322;DHT22;61549;37.044;22.128;2022-07-04T13:06:35;34.70;36.90
73322;DHT22;61549;37.044;22.128;2022-07-04T13:09:03;34.60;36.90
73322;DHT22;61549;37.044;22.128;2022-07-04T13:11:30;34.60;36.60
73322;DHT22;61549;37.044;22.128;2022-07-04T13:14:14;34.60;36.60
73322;DHT22;61549;37.044;22.128;2022-07-04T13:16:40;34.60;36.40
73322;DHT22;61549;37.044;22.128;2022-07-04T13:19:06;34.50;37.10
73322;DHT22;61549;37.044;22.128;2022-07-04T13:21:32;34.40;36.30
73322;DHT22;61549;37.044;22.128;2022-07-04T13:23:58;34.50;37.00
73322;DHT22;61549;37.044;22.128;2022-07-04T13:26:24;34.30;36.20
73322;DHT22;61549;37.044;22.128;2022-07-04T13:28:50;34.30;36.20
73322;DHT22;61549;37.044;22.128;2022-07-04T13:31:17;34.30;36.80
73322;DHT22;61549;37.044;22.128;2022-07-04T13:33:42;34.40;36.80
73322;DHT22;61549;37.044;22.128;2022-07-04T13:36:09;34.30;36.30
73322;DHT22;61549;37.044;22.128;2022-07-04T13:38:39;34.30;37.60
73322;DHT22;61549;37.044;22.128;2022-07-04T13:41:05;34.20;37.20
73322;DHT22;61549;37.044;22.128;2022-07-04T13:43:31;34.10;37.10
73322;DHT22;61549;37.044;22.128;2022-07-04T13:45:57;34.20;37.30
73322;DHT22;61549;37.044;22.128;2022-07-04T13:48:30;34.30;38.70
73322;DHT22;61549;37.044;22.128;2022-07-04T13:50:56;34.10;37.70
73322;DHT22;61549;37.044;22.128;2022-07-04T13:53:22;34.20;37.90
73322;DHT22;61549;37.044;22.128;2022-07-04T13:55:48;34.20;38.40
73322;DHT22;61549;37.044;22.128;2022-07-04T13:58:14;34.20;38.60
73322;DHT22;61549;37.044;22.128;2022-07-04T14:00:40;34.10;38.60
73322;DHT22;61549;37.044;22.128;2022-07-04T14:03:11;34.00;39.20
73322;DHT22;61549;37.044;22.128;2022-07-04T14:05:37;34.00;39.80
73322;DHT22;61549;37.044;22.128;2022-07-04T14:08:03;34.10;39.90
73322;DHT22;61549;37.044;22.128;2022-07-04T14:10:29;34.20;39.40
73322;DHT22;61549;37.044;22.128;2022-07-04T14:12:58;34.20;38.80
73322;DHT22;61549;37.044;22.128;2022-07-04T14:15:24;34.20;38.00
73322;DHT22;61549;37.044;22.128;2022-07-04T14:17:50;34.10;38.30
73322;DHT22;61549;37.044;22.128;2022-07-04T14:20:16;34.20;38.70
73322;DHT22;61549;37.044;22.128;2022-07-04T14:22:44;34.30;37.40
73322;DHT22;61549;37.044;22.128;2022-07-04T14:25:10;34.40;37.50
73322;DHT22;61549;37.044;22.128;2022-07-04T14:27:39;34.40;37.80
73322;DHT22;61549;37.044;22.128;2022-07-04T14:30:06;34.50;37.50
73322;DHT22;61549;37.044;22.128;2022-07-04T14:32:32;34.60;37.60
73322;DHT22;61549;37.044;22.128;2022-07-04T14:34:58;34.50;37.40
73322;DHT22;61549;37.044;22.128;2022-07-04T14:37:24;34.30;38.00
73322;DHT22;61549;37.044;22.128;2022-07-04T14:39:50;34.30;38.20
73322;DHT22;61549;37.044;22.128;2022-07-04T14:42:16;34.30;38.50
73322;DHT22;61549;37.044;22.128;2022-07-04T14:44:45;34.30;38.50
73322;DHT22;61549;37.044;22.128;2022-07-04T14:47:11;34.30;38.40
73322;DHT22;61549;37.044;22.128;2022-07-04T14:49:37;34.10;37.70
73322;DHT22;61549;37.044;22.128;2022-07-04T14:52:03;34.10;38.20
73322;DHT22;61549;37.044;22.128;2022-07-04T14:54:30;34.10;38.80
73322;DHT22;61549;37.044;22.128;2022-07-04T14:56:56;34.10;38.60
73322;DHT22;61549;37.044;22.128;2022-07-04T14:59:27;34.00;38.80
73322;DHT22;61549;37.044;22.128;2022-07-04T15:01:54;34.00;39.20
73322;DHT22;61549;37.044;22.128;2022-07-04T15:04:22;34.00;39.40
73322;DHT22;61549;37.044;22.128;2022-07-04T15:06:48;34.10;39.60
73322;DHT22;61549;37.044;22.128;2022-07-04T15:09:14;34.20;38.80
73322;DHT22;61549;37.044;22.128;2022-07-04T15:11:40;34.20;37.50
73322;DHT22;61549;37.044;22.128;2022-07-04T15:14:06;34.10;37.90
73322;DHT22;61549;37.044;22.128;2022-07-04T15:16:32;34.20;38.10
73322;DHT22;61549;37.044;22.128;2022-07-04T15:18:58;34.20;37.40
73322;DHT22;61549;37.044;22.128;2022-07-04T15:21:25;34.10;36.40
73322;DHT22;61549;37.044;22.128;2022-07-04T15:24:09;34.20;36.90
73322;DHT22;61549;37.044;22.128;2022-07-04T15:26:41;34.10;36.50
73322;DHT22;61549;37.044;22.128;2022-07-04T15:29:07;34.00;36.70
73322;DHT22;61549;37.044;22.128;2022-07-04T15:31:33;33.90;36.00
73322;DHT22;61549;37.044;22.128;2022-07-04T15:33:59;33.90;35.50
73322;DHT22;61549;37.044;22.128;2022-07-04T15:36:28;34.00;35.00
73322;DHT22;61549;37.044;22.128;2022-07-04T15:38:54;33.90;35.00
73322;DHT22;61549;37.044;22.128;2022-07-04T15:41:19;34.00;34.70
73322;DHT22;61549;37.044;22.128;2022-07-04T15:43:46;33.90;37.10
73322;DHT22;61549;37.044;22.128;2022-07-04T15:46:12;34.00;36.80
73322;DHT22;61549;37.044;22.128;2022-07-04T15:48:38;33.90;36.50
73322;DHT22;61549;37.044;22.128;2022-07-04T15:51:05;33.90;35.80
73322;DHT22;61549;37.044;22.128;2022-07-04T15:53:31;33.90;34.80
73322;DHT22;61549;37.044;22.128;2022-07-04T15:55:58;33.80;34.40
73322;DHT22;61549;37.044;22.128;2022-07-04T15:58:26;33.70;34.00
73322;DHT22;61549;37.044;22.128;2022-07-04T16:00:52;33.80;33.90